Nashotah, WI

08:04 PM CST del 21 Dicembre 2014 (GMT -0600)
Waukesha County | Change Station
CLOSE
Current Station
Aeroporto
Location: Waukesha,
Altitudine: 912 ft
Stazioni meteo nelle vicinanze

Alt. 912 ft 43.04 °N, 88.25 °W | Updated 19 minutes ago

Coperto
Coperto
34 °F
Sembra 25 °F
N
12
Vento Variabile Vento da SE

Oggi
Massima -- | Minima -- °F
--% Possibilità di precip.
Ieri
Massima -- | Minima -- °F
Precip. -- in
7:22 AM 4:21 PM
Luna nuova, 0% visible
Pressione 30.03 in
Visibilità 7.0 miglia
Nuvole Coperto 2300 ft
Raffreddamento del vento 25 °F
Punto di rugiada 28 °F
Umidità 81%
Piovosità 0.00 in
Spessore del manto nevoso Non disponibile.
Raggi UV 0 fuori da 12
Polline .10 fuori da 12
Qualità dell'aria Non disponibile.
Flu Activity Non disponibile.
METAR KUES 220145Z 14010KT 7SM OVC023 01/M02 A3003

More Conditions Fewer Conditions

Pressione 30.03 in
Visibilità 7.0 miglia
Nuvole Coperto 2300 ft
Raffreddamento del vento 25 °F
Punto di rugiada 28 °F
Umidità 81%
Piovosità 0.00 in
Spessore del manto nevoso Non disponibile.
Raggi UV 0 fuori da 12
Polline .10 fuori da 12
Qualità dell'aria Non disponibile.
Flu Activity Non disponibile.
METAR KUES 220145Z 14010KT 7SM OVC023 01/M02 A3003

More Conditions Fewer Conditions

10-Day Weather Forecast

Almanac

Astronomia

Dec. 21, 2014 Alba Tramonto
Ora attuale
Crepuscolo civile
Crepuscolo nautico
Crepuscolo astronomico
Luna
Estensione della luce visibile
Lunghezza del giorno
Tomorrow will be .
, % of the Moon is Illuminated

Gli estremi di oggi

State Highs State Lows

Community

WunderPhotos

Upload Photos

1,779,520 foto caricate!

WunderBlogs® & News

Nearby

Qualità dell'aria

  Qualità dell'aria Indice AQ Inquinante
Not available.

Profondità neve

Stazione Profondità Altitudine

Attività sismica

Città  Distanza Mag. Data & Ora
Minimo Magnitudo Mostrato è 2.5.

Temperature delle acque costiere

Località Temperatura

Stazioni meteo nelle vicinanze